Time;durP1;ratioP1;P1;durP2;ratioP2;P2;SDS_P1;SDS_P2;PMS_P1;PMS_P2;Temp;Humidity;BMP_temperature;BMP_pressure;BME280_temperature;BME280_humidity;BME280_pressure;Samples;Min_cycle;Max_cycle;Signal;HPM_P1;HPM_P2
2021/08/13 00:00:56;;;;;;;8.45;4.13;;;;;;;;;;5113296;28;20120;-78
2021/08/13 00:03:22;;;;;;;8.63;4.07;;;;;;;;;;5113420;28;20168;-78
2021/08/13 00:05:48;;;;;;;8.90;4.40;;;;;;;;;;5113373;28;20036;-78
2021/08/13 00:08:14;;;;;;;9.23;4.53;;;;;;;;;;5113383;28;20059;-78
2021/08/13 00:10:40;;;;;;;11.13;4.22;;;;;;;;;;5113121;28;20035;-78
2021/08/13 00:13:06;;;;;;;6.30;4.00;;;;;;;;;;5113368;28;20123;-78
2021/08/13 00:15:32;;;;;;;11.48;3.92;;;;;;;;;;5117233;28;20032;-78
2021/08/13 00:17:58;;;;;;;8.00;4.13;;;;;;;;;;5117149;28;20036;-79
2021/08/13 00:20:25;;;;;;;9.07;4.03;;;;;;;;;;5116802;28;20111;-78
2021/08/13 00:22:51;;;;;;;7.05;3.83;;;;;;;;;;5116881;28;20036;-78
2021/08/13 00:25:18;;;;;;;9.38;4.40;;;;;;;;;;5117143;28;20448;-78
2021/08/13 00:27:44;;;;;;;6.03;4.22;;;;;;;;;;5098482;28;20368;-77
2021/08/13 00:30:11;;;;;;;4.95;4.20;;;;;;;;;;5116789;28;20036;-78
2021/08/13 00:32:37;;;;;;;6.07;4.15;;;;;;;;;;5116620;28;20423;-79
2021/08/13 00:35:03;;;;;;;6.82;4.32;;;;;;;;;;5116870;28;20111;-77
2021/08/13 00:37:30;;;;;;;6.45;3.90;;;;;;;;;;5116648;28;20032;-77
2021/08/13 00:39:56;;;;;;;10.80;4.90;;;;;;;;;;5116779;28;20153;-78
2021/08/13 00:42:23;;;;;;;6.90;3.75;;;;;;;;;;5116728;28;20063;-79
2021/08/13 00:44:49;;;;;;;6.38;4.13;;;;;;;;;;5116468;28;20032;-79
2021/08/13 00:47:15;;;;;;;6.30;4.18;;;;;;;;;;5116872;28;20045;-75
2021/08/13 00:49:41;;;;;;;11.30;3.95;;;;;;;;;;5116254;28;20120;-77
2021/08/13 00:52:07;;;;;;;6.57;4.25;;;;;;;;;;5116349;28;20035;-78
2021/08/13 00:54:33;;;;;;;8.55;4.15;;;;;;;;;;5116543;28;20027;-78
2021/08/13 00:56:59;;;;;;;8.43;4.10;;;;;;;;;;5116380;28;20055;-79
2021/08/13 00:59:25;;;;;;;6.38;4.32;;;;;;;;;;5115867;28;20043;-78
2021/08/13 01:01:51;;;;;;;9.60;4.38;;;;;;;;;;5116576;28;20028;-79
2021/08/13 01:04:18;;;;;;;6.90;4.22;;;;;;;;;;5116000;28;20395;-78
2021/08/13 01:06:43;;;;;;;4.25;3.83;;;;;;;;;;5115963;28;20380;-78
2021/08/13 01:09:10;;;;;;;6.47;4.18;;;;;;;;;;5116132;28;20034;-78
2021/08/13 01:11:50;;;;;;;7.10;4.20;;;;;;;;;;5116200;28;20063;-76
2021/08/13 01:14:22;;;;;;;8.73;4.40;;;;;;;;;;5115709;28;20079;-77
2021/08/13 01:16:48;;;;;;;;;;;;;;;;;;5116551;28;20522;-78
2021/08/13 01:19:23;;;;;;;9.45;4.25;;;;;;;;;;5115835;28;19954;-78
2021/08/13 01:22:15;;;;;;;10.50;4.70;;;;;;;;;;5115834;28;20483;-78
2021/08/13 01:24:46;;;;;;;5.78;4.20;;;;;;;;;;5076976;28;20040;-77
2021/08/13 01:27:15;;;;;;;9.40;4.47;;;;;;;;;;5116048;28;20036;-78
2021/08/13 01:29:47;;;;;;;7.97;4.53;;;;;;;;;;5115543;28;20418;-78
2021/08/13 01:32:13;;;;;;;;;;;;;;;;;;5115978;28;20043;-78
2021/08/13 01:34:50;;;;;;;6.97;4.03;;;;;;;;;;5115687;28;19907;-78
2021/08/13 01:37:16;;;;;;;6.95;4.15;;;;;;;;;;5115651;28;20032;-78
2021/08/13 01:39:43;;;;;;;5.78;4.07;;;;;;;;;;5115443;28;20039;-77
2021/08/13 01:42:09;;;;;;;6.60;4.60;;;;;;;;;;5115474;28;20106;-78
2021/08/13 01:44:36;;;;;;;7.53;4.57;;;;;;;;;;5115326;28;20396;-78
2021/08/13 01:47:03;;;;;;;6.57;4.28;;;;;;;;;;5115528;28;20479;-78
2021/08/13 01:49:31;;;;;;;5.35;3.65;;;;;;;;;;5115356;28;20488;-78
2021/08/13 01:51:58;;;;;;;8.10;4.53;;;;;;;;;;5115320;28;20046;-78
2021/08/13 01:54:24;;;;;;;8.38;4.45;;;;;;;;;;5115483;28;20047;-78
2021/08/13 01:56:51;;;;;;;12.25;4.18;;;;;;;;;;5115190;28;20038;-79
2021/08/13 01:59:17;;;;;;;6.40;4.07;;;;;;;;;;5115019;28;20036;-78
2021/08/13 02:01:43;;;;;;;4.50;3.97;;;;;;;;;;5115092;28;20027;-78
2021/08/13 02:04:10;;;;;;;9.43;4.05;;;;;;;;;;5115324;28;20040;-78
2021/08/13 02:06:36;;;;;;;6.57;3.80;;;;;;;;;;5115068;28;20102;-78
2021/08/13 02:09:03;;;;;;;4.70;3.97;;;;;;;;;;5115046;28;20118;-78
2021/08/13 02:11:29;;;;;;;10.20;4.68;;;;;;;;;;5115168;28;20425;-79
2021/08/13 02:13:55;;;;;;;6.40;4.38;;;;;;;;;;5114940;28;20066;-78
2021/08/13 02:16:26;;;;;;;8.73;3.97;;;;;;;;;;5115067;28;20156;-78
2021/08/13 02:18:56;;;;;;;6.65;4.43;;;;;;;;;;5114996;28;20062;-78
2021/08/13 02:21:23;;;;;;;5.28;4.07;;;;;;;;;;5114740;28;20559;-78
2021/08/13 02:23:49;;;;;;;6.53;4.30;;;;;;;;;;5114547;28;20035;-78
2021/08/13 02:26:15;;;;;;;7.35;4.53;;;;;;;;;;5114702;28;20073;-76
2021/08/13 02:28:41;;;;;;;6.45;3.90;;;;;;;;;;5114457;28;20063;-78
2021/08/13 02:31:07;;;;;;;8.30;5.00;;;;;;;;;;5114585;28;20024;-78
2021/08/13 02:33:33;;;;;;;7.30;4.00;;;;;;;;;;5114246;28;20053;-78
2021/08/13 02:36:07;;;;;;;5.90;3.97;;;;;;;;;;5113678;28;20027;-78
2021/08/13 02:38:34;;;;;;;5.95;4.20;;;;;;;;;;5114436;28;20046;-78
2021/08/13 02:41:01;;;;;;;5.68;4.13;;;;;;;;;;5114487;28;20043;-78
2021/08/13 02:43:28;;;;;;;6.70;4.00;;;;;;;;;;5114471;28;20600;-78
2021/08/13 02:45:55;;;;;;;5.35;4.28;;;;;;;;;;5113671;28;20038;-77
2021/08/13 02:48:21;;;;;;;6.22;3.92;;;;;;;;;;5113816;28;20039;-75
2021/08/13 02:50:48;;;;;;;10.05;4.78;;;;;;;;;;5114097;28;20112;-77
2021/08/13 02:53:22;;;;;;;5.43;4.38;;;;;;;;;;5114371;28;20044;-79
2021/08/13 02:55:52;;;;;;;8.30;4.20;;;;;;;;;;5114278;28;20036;-77
2021/08/13 02:58:19;;;;;;;6.60;3.88;;;;;;;;;;5114272;28;20034;-77
2021/08/13 03:00:46;;;;;;;4.80;3.72;;;;;;;;;;5113933;28;20036;-77
2021/08/13 03:03:13;;;;;;;5.95;4.20;;;;;;;;;;5113960;28;20031;-78
2021/08/13 03:05:41;;;;;;;6.72;4.60;;;;;;;;;;5114083;28;20035;-77
2021/08/13 03:08:07;;;;;;;7.20;4.38;;;;;;;;;;5114100;28;20403;-78
2021/08/13 03:10:33;;;;;;;7.00;4.38;;;;;;;;;;5113979;28;20067;-78
2021/08/13 03:12:59;;;;;;;8.48;4.10;;;;;;;;;;5114635;28;20404;-70
2021/08/13 03:15:26;;;;;;;8.30;4.30;;;;;;;;;;5114006;28;20495;-69
2021/08/13 03:17:52;;;;;;;7.25;4.70;;;;;;;;;;5114071;28;20032;-71
2021/08/13 03:20:19;;;;;;;5.28;4.35;;;;;;;;;;5113719;28;20032;-70
2021/08/13 03:22:45;;;;;;;10.23;4.22;;;;;;;;;;5113836;28;20492;-70
2021/08/13 03:25:11;;;;;;;10.02;4.80;;;;;;;;;;5114217;28;20034;-70
2021/08/13 03:27:40;;;;;;;11.52;5.00;;;;;;;;;;5113926;28;20063;-69
2021/08/13 03:30:06;;;;;;;9.02;4.38;;;;;;;;;;5113507;28;20034;-69
2021/08/13 03:32:32;;;;;;;8.30;4.70;;;;;;;;;;5113652;28;20048;-70
2021/08/13 03:34:58;;;;;;;6.78;4.78;;;;;;;;;;5113796;28;20537;-70
2021/08/13 03:37:25;;;;;;;10.85;4.78;;;;;;;;;;5113625;28;20032;-70
2021/08/13 03:39:50;;;;;;;7.78;4.93;;;;;;;;;;5113570;28;20023;-70
2021/08/13 03:42:17;;;;;;;5.70;4.53;;;;;;;;;;5113400;28;20038;-69
2021/08/13 03:44:43;;;;;;;6.90;4.60;;;;;;;;;;5113885;28;20125;-70
2021/08/13 03:47:09;;;;;;;10.75;4.68;;;;;;;;;;5113818;28;20380;-69
2021/08/13 03:49:35;;;;;;;10.98;5.13;;;;;;;;;;5117635;28;20503;-69
2021/08/13 03:52:01;;;;;;;7.63;4.90;;;;;;;;;;5117611;28;20028;-70
2021/08/13 03:54:27;;;;;;;8.98;5.05;;;;;;;;;;5117282;28;20044;-69
2021/08/13 03:56:53;;;;;;;11.25;4.88;;;;;;;;;;5117765;28;20028;-69
2021/08/13 03:59:19;;;;;;;7.15;4.60;;;;;;;;;;5117523;28;20062;-70
2021/08/13 04:01:45;;;;;;;9.52;5.05;;;;;;;;;;5117323;28;20043;-70
2021/08/13 04:04:11;;;;;;;11.10;4.60;;;;;;;;;;5117309;28;20035;-70
2021/08/13 04:06:37;;;;;;;6.15;4.20;;;;;;;;;;5117146;28;20039;-69
2021/08/13 04:09:03;;;;;;;8.68;4.13;;;;;;;;;;5117384;28;20027;-69
2021/08/13 04:11:29;;;;;;;8.25;5.00;;;;;;;;;;5117307;28;20114;-69
2021/08/13 04:13:55;;;;;;;6.32;4.90;;;;;;;;;;5117477;28;20126;-70
2021/08/13 04:16:21;;;;;;;8.27;4.10;;;;;;;;;;5117059;28;20031;-69
2021/08/13 04:18:47;;;;;;;7.63;4.00;;;;;;;;;;5116706;28;20495;-69
2021/08/13 04:21:13;;;;;;;4.82;4.05;;;;;;;;;;5117151;28;20051;-69
2021/08/13 04:23:39;;;;;;;9.88;4.93;;;;;;;;;;5117071;28;20523;-71
2021/08/13 04:26:05;;;;;;;7.03;4.80;;;;;;;;;;5116773;28;20030;-69
2021/08/13 04:28:32;;;;;;;8.60;4.32;;;;;;;;;;5116818;28;20063;-71
2021/08/13 04:30:58;;;;;;;9.73;4.72;;;;;;;;;;5116809;28;20024;-71
2021/08/13 04:33:24;;;;;;;10.98;4.80;;;;;;;;;;5115663;28;20062;-72
2021/08/13 04:35:50;;;;;;;6.18;4.53;;;;;;;;;;5116368;28;20082;-71
2021/08/13 04:38:16;;;;;;;10.20;4.57;;;;;;;;;;5116159;28;20027;-71
2021/08/13 04:40:45;;;;;;;8.52;4.82;;;;;;;;;;5116176;28;20044;-71
2021/08/13 04:43:11;;;;;;;11.48;4.75;;;;;;;;;;5116438;28;20122;-71
2021/08/13 04:45:37;;;;;;;9.68;4.47;;;;;;;;;;5116585;28;20035;-71
2021/08/13 04:48:03;;;;;;;9.90;4.78;;;;;;;;;;5116440;28;20062;-71
2021/08/13 04:50:29;;;;;;;14.60;5.60;;;;;;;;;;5116648;28;20035;-71
2021/08/13 04:52:55;;;;;;;14.95;5.50;;;;;;;;;;5116516;28;20493;-71
2021/08/13 04:55:22;;;;;;;14.60;5.05;;;;;;;;;;5116085;28;20040;-71
2021/08/13 04:57:48;;;;;;;10.52;4.97;;;;;;;;;;5115888;28;20036;-71
2021/08/13 05:00:15;;;;;;;22.63;5.93;;;;;;;;;;5115411;28;20032;-71
2021/08/13 05:02:41;;;;;;;17.95;5.50;;;;;;;;;;5116632;28;20038;-71
2021/08/13 05:05:07;;;;;;;11.32;4.50;;;;;;;;;;5115964;28;20080;-71
2021/08/13 05:07:34;;;;;;;13.75;4.70;;;;;;;;;;5115534;28;20027;-71
2021/08/13 05:10:05;;;;;;;14.95;5.07;;;;;;;;;;5116133;28;20100;-71
2021/08/13 05:12:30;;;;;;;16.13;5.13;;;;;;;;;;5116399;28;20036;-72
2021/08/13 05:14:56;;;;;;;9.85;4.45;;;;;;;;;;5115783;28;20027;-71
2021/08/13 05:17:23;;;;;;;9.32;4.82;;;;;;;;;;5115786;28;20027;-71
2021/08/13 05:19:49;;;;;;;8.48;4.80;;;;;;;;;;5115885;28;20027;-71
2021/08/13 05:22:15;;;;;;;8.57;5.10;;;;;;;;;;5116013;28;20437;-69
2021/08/13 05:24:41;;;;;;;9.75;4.68;;;;;;;;;;5115545;28;20030;-69
2021/08/13 05:27:07;;;;;;;4.72;4.15;;;;;;;;;;5116048;28;20110;-70
2021/08/13 05:29:33;;;;;;;12.25;4.82;;;;;;;;;;5115972;28;20073;-68
2021/08/13 05:31:59;;;;;;;8.68;4.18;;;;;;;;;;5115763;28;20487;-69
2021/08/13 05:34:25;;;;;;;5.95;4.28;;;;;;;;;;5115615;28;20500;-69
2021/08/13 05:36:51;;;;;;;4.70;4.20;;;;;;;;;;5116296;28;20040;-68
2021/08/13 05:39:17;;;;;;;11.60;4.47;;;;;;;;;;5115596;28;20118;-68
2021/08/13 05:41:43;;;;;;;7.85;4.50;;;;;;;;;;5115138;28;20114;-71
2021/08/13 05:44:09;;;;;;;5.68;4.10;;;;;;;;;;5115646;28;20106;-70
2021/08/13 05:46:35;;;;;;;8.52;4.40;;;;;;;;;;5115473;28;20118;-70
2021/08/13 05:49:01;;;;;;;8.98;4.43;;;;;;;;;;5115541;28;20034;-70
2021/08/13 05:51:27;;;;;;;8.93;4.45;;;;;;;;;;5097233;28;20380;-70
2021/08/13 05:53:53;;;;;;;9.00;4.28;;;;;;;;;;5115322;28;20165;-69
2021/08/13 05:56:19;;;;;;;6.93;4.10;;;;;;;;;;5115305;28;20480;-69
2021/08/13 05:58:45;;;;;;;7.50;4.43;;;;;;;;;;5115429;28;20230;-69
2021/08/13 06:01:12;;;;;;;7.25;4.35;;;;;;;;;;5115354;28;20035;-71
2021/08/13 06:03:38;;;;;;;7.90;4.03;;;;;;;;;;5115375;28;20475;-70
2021/08/13 06:06:04;;;;;;;11.02;4.20;;;;;;;;;;5115363;28;20143;-75
2021/08/13 06:08:30;;;;;;;6.88;4.00;;;;;;;;;;5115118;28;20043;-76
2021/08/13 06:10:56;;;;;;;4.75;4.18;;;;;;;;;;5114992;28;20039;-77
2021/08/13 06:13:22;;;;;;;6.72;4.03;;;;;;;;;;5115132;28;20040;-72
2021/08/13 06:15:48;;;;;;;6.18;4.10;;;;;;;;;;5115082;28;20088;-72
2021/08/13 06:18:14;;;;;;;7.40;4.68;;;;;;;;;;5115156;28;20036;-69
2021/08/13 06:20:41;;;;;;;6.78;4.53;;;;;;;;;;5114587;28;20513;-69
2021/08/13 06:23:07;;;;;;;7.93;4.05;;;;;;;;;;5114948;28;20107;-71
2021/08/13 06:25:33;;;;;;;8.07;3.92;;;;;;;;;;5114835;28;20066;-68
2021/08/13 06:27:59;;;;;;;6.57;4.57;;;;;;;;;;5114969;28;20082;-70
2021/08/13 06:30:25;;;;;;;5.15;4.32;;;;;;;;;;5114792;28;20031;-72
2021/08/13 06:32:53;;;;;;;10.70;4.78;;;;;;;;;;5114294;28;20122;-70
2021/08/13 06:35:19;;;;;;;5.35;4.68;;;;;;;;;;5114704;28;20464;-71
2021/08/13 06:37:45;;;;;;;8.70;4.50;;;;;;;;;;5114448;28;20034;-70
2021/08/13 06:40:11;;;;;;;8.02;4.55;;;;;;;;;;5114712;28;20124;-72
2021/08/13 06:42:38;;;;;;;8.50;4.55;;;;;;;;;;5114579;28;20103;-70
2021/08/13 06:45:04;;;;;;;8.02;4.60;;;;;;;;;;5114607;28;20469;-71
2021/08/13 06:47:30;;;;;;;8.10;4.50;;;;;;;;;;5114275;28;20042;-71
2021/08/13 06:49:58;;;;;;;7.82;4.82;;;;;;;;;;5114444;28;20114;-71
2021/08/13 06:52:24;;;;;;;8.43;4.43;;;;;;;;;;5114073;28;20046;-74
2021/08/13 06:54:50;;;;;;;10.52;4.85;;;;;;;;;;5114237;28;20070;-71
2021/08/13 06:57:16;;;;;;;7.35;4.20;;;;;;;;;;5114317;28;20067;-71
2021/08/13 06:59:41;;;;;;;8.38;4.47;;;;;;;;;;5114205;28;20462;-70
2021/08/13 07:02:08;;;;;;;15.50;4.88;;;;;;;;;;5113960;28;20028;-71
2021/08/13 07:04:34;;;;;;;15.18;4.40;;;;;;;;;;5114135;28;20039;-72
2021/08/13 07:07:00;;;;;;;10.70;4.80;;;;;;;;;;5113927;28;20027;-70
2021/08/13 07:09:26;;;;;;;10.10;4.70;;;;;;;;;;5113974;28;20387;-73
2021/08/13 07:11:51;;;;;;;8.73;4.25;;;;;;;;;;5114079;28;20031;-72
2021/08/13 07:14:17;;;;;;;9.23;4.90;;;;;;;;;;5114169;28;20039;-71
2021/08/13 07:16:43;;;;;;;31.08;7.32;;;;;;;;;;5113903;28;20406;-71
2021/08/13 07:19:09;;;;;;;9.20;4.55;;;;;;;;;;5113721;28;20040;-73
2021/08/13 07:21:35;;;;;;;10.38;4.30;;;;;;;;;;5113849;28;20023;-72
2021/08/13 07:24:01;;;;;;;11.35;4.22;;;;;;;;;;5113470;28;20043;-70
2021/08/13 07:26:28;;;;;;;9.93;3.85;;;;;;;;;;5113900;28;20464;-71
2021/08/13 07:28:54;;;;;;;9.00;4.13;;;;;;;;;;5113951;28;20380;-77
2021/08/13 07:31:20;;;;;;;10.65;4.50;;;;;;;;;;5113678;28;20046;-76
2021/08/13 07:33:46;;;;;;;5.13;4.03;;;;;;;;;;5113386;28;20079;-71
2021/08/13 07:36:12;;;;;;;6.65;4.53;;;;;;;;;;5113723;28;20084;-79
2021/08/13 07:38:41;;;;;;;10.80;4.70;;;;;;;;;;5113752;28;20032;-70
2021/08/13 07:41:07;;;;;;;7.70;4.47;;;;;;;;;;5113761;28;20027;-71
2021/08/13 07:43:33;;;;;;;8.27;4.53;;;;;;;;;;5113742;28;20070;-71
2021/08/13 07:46:00;;;;;;;8.80;5.00;;;;;;;;;;5113840;28;20621;-71
2021/08/13 07:48:26;;;;;;;6.43;4.20;;;;;;;;;;5113400;28;20036;-71
2021/08/13 07:50:52;;;;;;;8.05;4.03;;;;;;;;;;5113669;28;20028;-71
2021/08/13 07:53:18;;;;;;;5.80;4.10;;;;;;;;;;5113542;28;20071;-72
2021/08/13 07:55:44;;;;;;;9.88;4.30;;;;;;;;;;5113645;28;20446;-71
2021/08/13 07:58:11;;;;;;;8.05;5.18;;;;;;;;;;5113732;28;20419;-74
2021/08/13 08:00:37;;;;;;;11.55;4.85;;;;;;;;;;5113536;28;20460;-71
2021/08/13 08:03:04;;;;;;;6.70;4.20;;;;;;;;;;5113204;28;20027;-72
2021/08/13 08:05:30;;;;;;;8.90;4.47;;;;;;;;;;5113432;28;20046;-71
2021/08/13 08:07:56;;;;;;;8.05;4.32;;;;;;;;;;5113651;28;20031;-75
2021/08/13 08:10:22;;;;;;;7.40;4.45;;;;;;;;;;5113494;28;20433;-72
2021/08/13 08:12:48;;;;;;;5.18;4.03;;;;;;;;;;5113297;28;20040;-73
2021/08/13 08:15:15;;;;;;;11.05;4.38;;;;;;;;;;5113345;28;20036;-72
2021/08/13 08:17:41;;;;;;;6.60;4.22;;;;;;;;;;5113355;28;20421;-71
2021/08/13 08:20:07;;;;;;;6.30;3.97;;;;;;;;;;5113696;28;20058;-71
2021/08/13 08:22:33;;;;;;;8.27;4.25;;;;;;;;;;5113648;28;20039;-71
2021/08/13 08:24:59;;;;;;;9.15;4.63;;;;;;;;;;5113279;28;20046;-73
2021/08/13 08:27:25;;;;;;;6.53;4.22;;;;;;;;;;5113458;28;20036;-76
2021/08/13 08:29:51;;;;;;;11.18;4.20;;;;;;;;;;5113317;28;20126;-76
2021/08/13 08:32:17;;;;;;;8.68;4.00;;;;;;;;;;5113344;28;20059;-72
2021/08/13 08:34:43;;;;;;;5.55;3.95;;;;;;;;;;5114179;28;20130;-72
2021/08/13 08:37:11;;;;;;;8.23;4.13;;;;;;;;;;5116732;28;20099;-74
2021/08/13 08:39:38;;;;;;;8.45;4.00;;;;;;;;;;5117004;28;20032;-79
2021/08/13 08:42:10;;;;;;;10.27;4.20;;;;;;;;;;5116942;28;20058;-72
2021/08/13 08:44:36;;;;;;;7.65;3.75;;;;;;;;;;5116881;28;20115;-71
2021/08/13 08:47:03;;;;;;;13.32;4.10;;;;;;;;;;5116596;28;20114;-78
2021/08/13 08:49:29;;;;;;;17.38;4.25;;;;;;;;;;5116963;28;20043;-72
2021/08/13 08:51:56;;;;;;;4.95;3.80;;;;;;;;;;5116818;28;20028;-74
2021/08/13 08:54:24;;;;;;;10.10;3.95;;;;;;;;;;5116438;28;20388;-71
2021/08/13 08:56:51;;;;;;;6.50;4.05;;;;;;;;;;5117090;28;20039;-71
2021/08/13 08:59:18;;;;;;;5.45;3.90;;;;;;;;;;5116634;28;20039;-71
2021/08/13 09:01:44;;;;;;;10.48;4.13;;;;;;;;;;5116544;28;20549;-71
2021/08/13 09:04:10;;;;;;;12.70;4.07;;;;;;;;;;5116578;28;20044;-71
2021/08/13 09:06:43;;;;;;;11.23;3.83;;;;;;;;;;5116521;28;20561;-71
2021/08/13 09:09:09;;;;;;;8.13;3.80;;;;;;;;;;5116174;28;20053;-73
2021/08/13 09:11:38;;;;;;;5.32;3.72;;;;;;;;;;5116329;28;20114;-70
2021/08/13 09:14:05;;;;;;;7.95;4.00;;;;;;;;;;5116100;28;20088;-72
2021/08/13 09:16:32;;;;;;;7.15;4.15;;;;;;;;;;5115933;28;20498;-73
2021/08/13 09:19:01;;;;;;;6.97;3.70;;;;;;;;;;5116075;28;20035;-71
2021/08/13 09:21:27;;;;;;;10.77;4.28;;;;;;;;;;5116165;28;20500;-71
2021/08/13 09:23:54;;;;;;;9.45;4.10;;;;;;;;;;5115980;28;20472;-70
2021/08/13 09:26:24;;;;;;;6.18;3.97;;;;;;;;;;5115789;28;20196;-71
2021/08/13 09:28:53;;;;;;;8.38;3.88;;;;;;;;;;5115807;28;20043;-71
2021/08/13 09:31:33;;;;;;;6.82;4.82;;;;;;;;;;5115792;28;20486;-71
2021/08/13 09:34:10;;;;;;;7.60;3.88;;;;;;;;;;5115516;28;20083;-72
2021/08/13 09:36:37;;;;;;;7.30;4.10;;;;;;;;;;5115759;28;20119;-70
2021/08/13 09:39:05;;;;;;;6.65;3.70;;;;;;;;;;5115746;28;20043;-70
2021/08/13 09:41:42;;;;;;;9.43;4.03;;;;;;;;;;5115617;28;20031;-70
2021/08/13 09:44:09;;;;;;;7.32;3.80;;;;;;;;;;5115695;28;20038;-72
2021/08/13 09:46:35;;;;;;;11.15;4.05;;;;;;;;;;5115381;28;20028;-73
2021/08/13 09:49:13;;;;;;;5.93;3.35;;;;;;;;;;5115471;28;20107;-71
2021/08/13 09:51:40;;;;;;;7.38;4.15;;;;;;;;;;5115569;28;20105;-71
2021/08/13 09:54:06;;;;;;;4.22;3.80;;;;;;;;;;5115377;28;20043;-71
2021/08/13 09:56:33;;;;;;;8.95;3.85;;;;;;;;;;5115407;28;20043;-72
2021/08/13 09:59:09;;;;;;;5.22;3.40;;;;;;;;;;5115431;28;20039;-72
2021/08/13 10:01:38;;;;;;;4.07;3.35;;;;;;;;;;5115236;28;20491;-74
2021/08/13 10:04:05;;;;;;;5.25;3.63;;;;;;;;;;5115069;28;20040;-69
2021/08/13 10:06:32;;;;;;;6.63;3.50;;;;;;;;;;5115079;28;20035;-71
2021/08/13 10:08:58;;;;;;;5.38;3.17;;;;;;;;;;5115234;28;20035;-72
2021/08/13 10:11:24;;;;;;;5.35;3.22;;;;;;;;;;5115166;28;20116;-71
2021/08/13 10:13:50;;;;;;;7.28;3.47;;;;;;;;;;5115141;28;20124;-79
2021/08/13 10:16:22;;;;;;;5.60;3.60;;;;;;;;;;5114862;28;20031;-74
2021/08/13 10:18:50;;;;;;;5.93;2.97;;;;;;;;;;5115255;28;20028;-71
2021/08/13 10:21:17;;;;;;;7.10;3.42;;;;;;;;;;5114864;28;20525;-71
2021/08/13 10:23:44;;;;;;;4.72;2.88;;;;;;;;;;5114946;28;20373;-71
2021/08/13 10:26:13;;;;;;;6.60;3.30;;;;;;;;;;5114748;28;20036;-72
2021/08/13 10:28:39;;;;;;;4.93;3.42;;;;;;;;;;5114679;28;20040;-71
2021/08/13 10:31:05;;;;;;;5.82;3.30;;;;;;;;;;5114919;28;20369;-68
2021/08/13 10:33:31;;;;;;;7.32;2.97;;;;;;;;;;5114346;28;20056;-73
2021/08/13 10:36:01;;;;;;;4.55;3.22;;;;;;;;;;5114424;28;20023;-74
2021/08/13 10:38:29;;;;;;;3.78;2.92;;;;;;;;;;5115051;28;20407;-73
2021/08/13 10:40:55;;;;;;;8.18;3.20;;;;;;;;;;5114510;28;20031;-72
2021/08/13 10:43:24;;;;;;;3.40;3.08;;;;;;;;;;5114500;28;20120;-71
2021/08/13 10:45:53;;;;;;;5.32;3.20;;;;;;;;;;5114326;28;20121;-76
2021/08/13 10:48:22;;;;;;;4.82;3.20;;;;;;;;;;5114288;28;20058;-75
2021/08/13 10:50:48;;;;;;;7.43;3.30;;;;;;;;;;5114387;28;20027;-73
2021/08/13 10:53:24;;;;;;;6.05;3.58;;;;;;;;;;5114331;28;20055;-73
2021/08/13 10:55:53;;;;;;;6.05;3.15;;;;;;;;;;5114336;28;20081;-71
2021/08/13 10:58:41;;;;;;;7.57;3.47;;;;;;;;;;5113437;28;20057;-72
2021/08/13 11:01:10;;;;;;;6.10;3.10;;;;;;;;;;5114223;28;20035;-73
2021/08/13 11:03:41;;;;;;;4.22;2.95;;;;;;;;;;5114212;28;20023;-70
2021/08/13 11:06:07;;;;;;;6.20;3.10;;;;;;;;;;5114314;28;20027;-70
2021/08/13 11:08:40;;;;;;;6.47;3.30;;;;;;;;;;5114365;28;20042;-71
2021/08/13 11:11:07;;;;;;;7.57;3.30;;;;;;;;;;5114128;28;20388;-71
2021/08/13 11:13:39;;;;;;;4.03;3.33;;;;;;;;;;5114105;28;20131;-72
2021/08/13 11:16:24;;;;;;;10.07;3.38;;;;;;;;;;5114210;28;20028;-72
2021/08/13 11:18:57;;;;;;;8.80;3.38;;;;;;;;;;5114293;28;20063;-70
2021/08/13 11:21:33;;;;;;;6.25;3.67;;;;;;;;;;5114052;28;20039;-72
2021/08/13 11:24:00;;;;;;;7.43;3.50;;;;;;;;;;5114029;28;20392;-73
2021/08/13 11:26:45;;;;;;;8.80;3.40;;;;;;;;;;5114006;28;20070;-75
2021/08/13 11:29:36;;;;;;;5.28;3.33;;;;;;;;;;5113922;28;20161;-70
2021/08/13 11:32:14;;;;;;;5.75;3.63;;;;;;;;;;5113799;28;20510;-71
2021/08/13 11:34:47;;;;;;;5.00;3.13;;;;;;;;;;5113703;28;20503;-70
2021/08/13 11:37:32;;;;;;;5.18;3.67;;;;;;;;;;5113982;28;20055;-70
2021/08/13 11:39:59;;;;;;;8.07;4.43;;;;;;;;;;5113716;28;20087;-70
2021/08/13 11:42:33;;;;;;;7.60;3.60;;;;;;;;;;5113820;28;20425;-70
2021/08/13 11:45:00;;;;;;;4.93;3.30;;;;;;;;;;5113806;28;20036;-70
2021/08/13 11:47:26;;;;;;;6.20;3.28;;;;;;;;;;5113828;28;20052;-71
2021/08/13 11:49:52;;;;;;;7.53;3.45;;;;;;;;;;5113651;28;20039;-72
2021/08/13 11:52:22;;;;;;;6.35;3.72;;;;;;;;;;5113587;28;20097;-70
2021/08/13 11:54:49;;;;;;;6.13;3.45;;;;;;;;;;5113821;28;20096;-71
2021/08/13 11:57:15;;;;;;;8.48;3.42;;;;;;;;;;5113630;28;20380;-75
2021/08/13 11:59:41;;;;;;;5.55;3.53;;;;;;;;;;5114061;28;20067;-71
2021/08/13 12:02:08;;;;;;;3.88;3.30;;;;;;;;;;5113827;28;20531;-71
2021/08/13 12:04:34;;;;;;;4.85;3.30;;;;;;;;;;5113347;28;20042;-71
2021/08/13 12:07:06;;;;;;;4.07;3.38;;;;;;;;;;5113463;28;20043;-70
2021/08/13 12:09:39;;;;;;;9.02;3.17;;;;;;;;;;5115970;28;20063;-73
2021/08/13 12:12:06;;;;;;;5.00;3.13;;;;;;;;;;5117640;28;20039;-71
2021/08/13 12:14:32;;;;;;;6.32;3.15;;;;;;;;;;5117301;28;20078;-70
2021/08/13 12:16:58;;;;;;;6.22;3.47;;;;;;;;;;5117142;28;20433;-71
2021/08/13 12:19:24;;;;;;;5.30;2.97;;;;;;;;;;5117223;28;20035;-71
2021/08/13 12:22:00;;;;;;;4.78;3.78;;;;;;;;;;5117414;28;20036;-71
2021/08/13 12:24:37;;;;;;;7.05;3.47;;;;;;;;;;5117269;28;20043;-70
2021/08/13 12:27:07;;;;;;;5.60;3.35;;;;;;;;;;5117310;28;20024;-70
2021/08/13 12:29:34;;;;;;;4.43;3.45;;;;;;;;;;5117151;28;20413;-70
2021/08/13 12:32:01;;;;;;;5.57;3.33;;;;;;;;;;5117066;28;20031;-70
2021/08/13 12:34:28;;;;;;;5.10;3.28;;;;;;;;;;5116718;28;20131;-72
2021/08/13 12:37:20;;;;;;;9.32;3.40;;;;;;;;;;5117101;28;20032;-72
2021/08/13 12:39:47;;;;;;;6.18;3.25;;;;;;;;;;5112613;28;20034;-71
2021/08/13 12:42:14;;;;;;;6.50;3.42;;;;;;;;;;5117410;28;20442;-70
2021/08/13 12:44:41;;;;;;;5.13;3.33;;;;;;;;;;5116905;28;20116;-72
2021/08/13 12:47:08;;;;;;;6.30;3.40;;;;;;;;;;5116667;28;20468;-71
2021/08/13 12:49:38;;;;;;;10.20;3.65;;;;;;;;;;5116768;28;20056;-71
2021/08/13 12:52:09;;;;;;;7.95;3.55;;;;;;;;;;5098823;28;20540;-77
2021/08/13 12:54:36;;;;;;;6.55;3.67;;;;;;;;;;5116575;28;20044;-71
2021/08/13 12:57:03;;;;;;;9.23;3.78;;;;;;;;;;5116619;28;20036;-73
2021/08/13 12:59:33;;;;;;;8.35;3.35;;;;;;;;;;5116694;28;20032;-72
2021/08/13 13:02:00;;;;;;;4.65;3.42;;;;;;;;;;5116385;28;20059;-74
2021/08/13 13:04:36;;;;;;;4.43;3.22;;;;;;;;;;5116450;28;20527;-72
2021/08/13 13:07:03;;;;;;;7.13;3.58;;;;;;;;;;5116338;28;20492;-72
2021/08/13 13:09:30;;;;;;;7.88;3.70;;;;;;;;;;5116090;28;20023;-74
2021/08/13 13:12:14;;;;;;;9.20;3.30;;;;;;;;;;5116496;28;20093;-71
2021/08/13 13:14:40;;;;;;;4.82;3.63;;;;;;;;;;5097839;28;20051;-72
2021/08/13 13:17:07;;;;;;;5.93;3.53;;;;;;;;;;5116316;28;20028;-72
2021/08/13 13:19:34;;;;;;;6.97;3.70;;;;;;;;;;5115941;28;20032;-71
2021/08/13 13:22:15;;;;;;;5.38;3.15;;;;;;;;;;5115423;28;20036;-70
2021/08/13 13:24:41;;;;;;;4.43;3.30;;;;;;;;;;5115763;28;20027;-71
2021/08/13 13:27:07;;;;;;;7.15;3.50;;;;;;;;;;5116035;28;20035;-73
2021/08/13 13:29:45;;;;;;;6.10;3.20;;;;;;;;;;5115846;28;20089;-71
2021/08/13 13:32:14;;;;;;;5.68;3.58;;;;;;;;;;5115817;28;20424;-72
2021/08/13 13:34:40;;;;;;;7.30;3.53;;;;;;;;;;5115544;28;20189;-72
2021/08/13 13:37:16;;;;;;;8.10;3.72;;;;;;;;;;5115982;28;20433;-72
2021/08/13 13:39:42;;;;;;;5.22;3.40;;;;;;;;;;5115729;28;20032;-71
2021/08/13 13:42:09;;;;;;;6.65;3.88;;;;;;;;;;5115750;28;20035;-71
2021/08/13 13:44:35;;;;;;;11.45;3.58;;;;;;;;;;5115734;28;20085;-73
2021/08/13 13:47:01;;;;;;;5.00;3.22;;;;;;;;;;5115504;28;20115;-72
2021/08/13 13:49:27;;;;;;;6.75;3.33;;;;;;;;;;5115484;28;20074;-70
2021/08/13 13:51:53;;;;;;;4.80;3.78;;;;;;;;;;5115539;28;20114;-70
2021/08/13 13:54:21;;;;;;;3.47;3.10;;;;;;;;;;5115443;28;20044;-72
2021/08/13 13:56:47;;;;;;;5.35;3.42;;;;;;;;;;5115523;28;20069;-71
2021/08/13 13:59:13;;;;;;;7.43;3.60;;;;;;;;;;5115409;28;20416;-73
2021/08/13 14:01:39;;;;;;;6.15;3.63;;;;;;;;;;5115361;28;20110;-73
2021/08/13 14:04:05;;;;;;;4.38;3.30;;;;;;;;;;5115205;28;20031;-72
2021/08/13 14:06:31;;;;;;;12.63;4.18;;;;;;;;;;5115197;28;20480;-71
2021/08/13 14:08:57;;;;;;;4.70;3.10;;;;;;;;;;5115390;28;20544;-70
2021/08/13 14:11:23;;;;;;;6.63;3.47;;;;;;;;;;5115310;28;20039;-70
2021/08/13 14:13:49;;;;;;;10.50;3.55;;;;;;;;;;5115132;28;20039;-70
2021/08/13 14:16:15;;;;;;;4.90;3.50;;;;;;;;;;5114722;28;20032;-71
2021/08/13 14:18:41;;;;;;;6.20;3.58;;;;;;;;;;5114825;28;20553;-70
2021/08/13 14:21:08;;;;;;;8.68;3.40;;;;;;;;;;5115054;28;20032;-70
2021/08/13 14:23:34;;;;;;;7.60;3.45;;;;;;;;;;5114973;28;20032;-69
2021/08/13 14:26:01;;;;;;;7.38;3.72;;;;;;;;;;5115332;28;20118;-70
2021/08/13 14:28:27;;;;;;;9.02;3.58;;;;;;;;;;5114757;28;20399;-70
2021/08/13 14:30:53;;;;;;;5.45;3.40;;;;;;;;;;5114736;28;20024;-70
2021/08/13 14:33:19;;;;;;;6.28;3.70;;;;;;;;;;5113419;28;20059;-71
2021/08/13 14:35:45;;;;;;;9.18;3.78;;;;;;;;;;5114722;28;20028;-70
2021/08/13 14:38:11;;;;;;;7.57;3.70;;;;;;;;;;5114730;28;20108;-70
2021/08/13 14:40:37;;;;;;;5.05;3.65;;;;;;;;;;5114481;28;20032;-70
2021/08/13 14:43:06;;;;;;;4.57;3.35;;;;;;;;;;5115016;28;20070;-71